sensor_id;sensor_type;location;lat;lon;timestamp;pressure;altitude;pressure_sealevel;temperature;humidity
45991;BME280;31721;41.740;-88.000;2023-06-10T00:01:34;98426.95;;;27.41;20.08
45991;BME280;31721;41.740;-88.000;2023-06-10T00:04:01;98426.80;;;27.52;19.75
45991;BME280;31721;41.740;-88.000;2023-06-10T00:06:30;98423.91;;;27.63;19.64
45991;BME280;31721;41.740;-88.000;2023-06-10T00:08:58;98422.36;;;27.84;19.68
45991;BME280;31721;41.740;-88.000;2023-06-10T00:11:26;98418.31;;;27.80;19.71
45991;BME280;31721;41.740;-88.000;2023-06-10T00:13:54;98417.13;;;27.76;19.70
45991;BME280;31721;41.740;-88.000;2023-06-10T00:16:27;98414.90;;;27.59;19.49
45991;BME280;31721;41.740;-88.000;2023-06-10T00:18:55;98410.31;;;27.36;19.40
45991;BME280;31721;41.740;-88.000;2023-06-10T00:21:22;98411.07;;;27.28;19.65
45991;BME280;31721;41.740;-88.000;2023-06-10T00:23:50;98410.56;;;27.17;19.55
45991;BME280;31721;41.740;-88.000;2023-06-10T00:26:18;98410.58;;;27.08;19.61
45991;BME280;31721;41.740;-88.000;2023-06-10T00:28:46;98408.18;;;26.93;19.78
45991;BME280;31721;41.740;-88.000;2023-06-10T00:31:13;98404.36;;;26.73;19.66
45991;BME280;31721;41.740;-88.000;2023-06-10T00:33:41;98400.82;;;26.49;19.89
45991;BME280;31721;41.740;-88.000;2023-06-10T00:36:09;98401.98;;;26.50;19.78
45991;BME280;31721;41.740;-88.000;2023-06-10T00:38:37;98401.01;;;26.41;19.85
45991;BME280;31721;41.740;-88.000;2023-06-10T00:41:06;98403.37;;;26.28;20.05
45991;BME280;31721;41.740;-88.000;2023-06-10T00:43:34;98405.01;;;26.24;20.11
45991;BME280;31721;41.740;-88.000;2023-06-10T00:46:03;98408.32;;;26.21;20.32
45991;BME280;31721;41.740;-88.000;2023-06-10T00:48:33;98404.26;;;26.03;20.17
45991;BME280;31721;41.740;-88.000;2023-06-10T00:51:02;98402.52;;;25.81;20.37
45991;BME280;31721;41.740;-88.000;2023-06-10T00:53:30;98403.04;;;25.70;20.33
45991;BME280;31721;41.740;-88.000;2023-06-10T00:55:59;98399.53;;;25.64;20.66
45991;BME280;31721;41.740;-88.000;2023-06-10T00:58:27;98398.84;;;25.55;20.99
45991;BME280;31721;41.740;-88.000;2023-06-10T01:00:55;98398.48;;;25.54;20.82
45991;BME280;31721;41.740;-88.000;2023-06-10T01:03:24;98397.39;;;25.54;20.74
45991;BME280;31721;41.740;-88.000;2023-06-10T01:05:56;98395.76;;;25.38;20.74
45991;BME280;31721;41.740;-88.000;2023-06-10T01:08:31;98394.53;;;25.36;20.80
45991;BME280;31721;41.740;-88.000;2023-06-10T01:11:01;98391.42;;;25.05;20.80
45991;BME280;31721;41.740;-88.000;2023-06-10T01:13:32;98394.92;;;24.92;21.09
45991;BME280;31721;41.740;-88.000;2023-06-10T01:16:00;98398.77;;;24.88;21.16
45991;BME280;31721;41.740;-88.000;2023-06-10T01:18:30;98399.73;;;24.78;21.26
45991;BME280;31721;41.740;-88.000;2023-06-10T01:20:58;98398.46;;;24.62;21.14
45991;BME280;31721;41.740;-88.000;2023-06-10T01:23:26;98398.40;;;24.52;21.32
45991;BME280;31721;41.740;-88.000;2023-06-10T01:25:56;98399.26;;;24.42;21.53
45991;BME280;31721;41.740;-88.000;2023-06-10T01:28:33;98396.91;;;24.38;21.47
45991;BME280;31721;41.740;-88.000;2023-06-10T01:31:09;98401.34;;;24.25;21.62
45991;BME280;31721;41.740;-88.000;2023-06-10T01:33:43;98404.16;;;24.14;21.83
45991;BME280;31721;41.740;-88.000;2023-06-10T01:36:13;98402.32;;;24.11;21.67
45991;BME280;31721;41.740;-88.000;2023-06-10T01:38:45;98404.76;;;23.93;21.90
45991;BME280;31721;41.740;-88.000;2023-06-10T01:41:15;98403.78;;;23.80;21.78
45991;BME280;31721;41.740;-88.000;2023-06-10T01:43:45;98401.97;;;23.69;21.80
45991;BME280;31721;41.740;-88.000;2023-06-10T01:46:13;98396.85;;;23.72;22.17
45991;BME280;31721;41.740;-88.000;2023-06-10T01:48:42;98397.68;;;23.58;22.26
45991;BME280;31721;41.740;-88.000;2023-06-10T01:51:10;98398.19;;;23.46;22.33
45991;BME280;31721;41.740;-88.000;2023-06-10T01:53:39;98401.67;;;23.45;22.41
45991;BME280;31721;41.740;-88.000;2023-06-10T01:56:07;98401.99;;;23.34;22.47
45991;BME280;31721;41.740;-88.000;2023-06-10T01:58:36;98404.23;;;23.21;22.50
45991;BME280;31721;41.740;-88.000;2023-06-10T02:01:04;98405.93;;;23.12;22.62
45991;BME280;31721;41.740;-88.000;2023-06-10T02:03:33;98407.25;;;23.03;22.77
45991;BME280;31721;41.740;-88.000;2023-06-10T02:06:01;98415.98;;;22.93;22.86
45991;BME280;31721;41.740;-88.000;2023-06-10T02:08:29;98423.32;;;22.79;22.86
45991;BME280;31721;41.740;-88.000;2023-06-10T02:10:57;98424.28;;;22.79;23.11
45991;BME280;31721;41.740;-88.000;2023-06-10T02:13:26;98424.49;;;22.69;23.19
45991;BME280;31721;41.740;-88.000;2023-06-10T02:15:55;98426.30;;;22.52;23.39
45991;BME280;31721;41.740;-88.000;2023-06-10T02:18:23;98429.40;;;22.61;23.68
45991;BME280;31721;41.740;-88.000;2023-06-10T02:20:51;98429.76;;;22.51;23.74
45991;BME280;31721;41.740;-88.000;2023-06-10T02:23:20;98433.03;;;22.37;23.82
45991;BME280;31721;41.740;-88.000;2023-06-10T02:25:48;98439.82;;;22.35;23.85
45991;BME280;31721;41.740;-88.000;2023-06-10T02:28:16;98440.86;;;22.22;23.81
45991;BME280;31721;41.740;-88.000;2023-06-10T02:30:44;98442.73;;;22.15;24.03
45991;BME280;31721;41.740;-88.000;2023-06-10T02:33:11;98450.06;;;22.06;24.42
45991;BME280;31721;41.740;-88.000;2023-06-10T02:35:40;98457.80;;;22.00;24.63
45991;BME280;31721;41.740;-88.000;2023-06-10T02:38:08;98463.16;;;22.01;24.71
45991;BME280;31721;41.740;-88.000;2023-06-10T02:40:37;98466.65;;;21.84;24.63
45991;BME280;31721;41.740;-88.000;2023-06-10T02:43:04;98467.18;;;21.74;24.65
45991;BME280;31721;41.740;-88.000;2023-06-10T02:45:32;98465.75;;;21.67;24.76
45991;BME280;31721;41.740;-88.000;2023-06-10T02:48:00;98463.52;;;21.60;24.99
45991;BME280;31721;41.740;-88.000;2023-06-10T02:50:28;98462.53;;;21.51;25.07
45991;BME280;31721;41.740;-88.000;2023-06-10T02:52:55;98462.67;;;21.46;25.19
45991;BME280;31721;41.740;-88.000;2023-06-10T02:55:23;98461.79;;;21.44;25.41
45991;BME280;31721;41.740;-88.000;2023-06-10T02:57:51;98465.00;;;21.36;25.58
45991;BME280;31721;41.740;-88.000;2023-06-10T03:00:18;98471.26;;;21.26;25.78
45991;BME280;31721;41.740;-88.000;2023-06-10T03:02:47;98473.67;;;21.20;26.06
45991;BME280;31721;41.740;-88.000;2023-06-10T03:05:15;98474.38;;;21.21;26.07
45991;BME280;31721;41.740;-88.000;2023-06-10T03:07:43;98478.87;;;21.04;26.06
45991;BME280;31721;41.740;-88.000;2023-06-10T03:10:10;98477.97;;;20.98;26.20
45991;BME280;31721;41.740;-88.000;2023-06-10T03:12:38;98478.17;;;21.01;26.35
45991;BME280;31721;41.740;-88.000;2023-06-10T03:15:08;98478.12;;;20.94;26.42
45991;BME280;31721;41.740;-88.000;2023-06-10T03:17:35;98480.86;;;20.86;26.53
45991;BME280;31721;41.740;-88.000;2023-06-10T03:20:05;98481.47;;;20.77;26.73
45991;BME280;31721;41.740;-88.000;2023-06-10T03:22:33;98486.02;;;20.71;26.85
45991;BME280;31721;41.740;-88.000;2023-06-10T03:25:00;98484.99;;;20.65;26.93
45991;BME280;31721;41.740;-88.000;2023-06-10T03:27:28;98486.87;;;20.57;27.07
45991;BME280;31721;41.740;-88.000;2023-06-10T03:29:56;98488.49;;;20.59;27.34
45991;BME280;31721;41.740;-88.000;2023-06-10T03:32:24;98493.04;;;20.45;27.35
45991;BME280;31721;41.740;-88.000;2023-06-10T03:34:52;98492.14;;;20.38;27.55
45991;BME280;31721;41.740;-88.000;2023-06-10T03:37:20;98487.63;;;20.41;27.61
45991;BME280;31721;41.740;-88.000;2023-06-10T03:39:48;98484.05;;;20.37;27.57
45991;BME280;31721;41.740;-88.000;2023-06-10T03:42:17;98486.62;;;20.41;27.53
45991;BME280;31721;41.740;-88.000;2023-06-10T03:44:44;98487.02;;;20.35;27.52
45991;BME280;31721;41.740;-88.000;2023-06-10T03:47:13;98485.21;;;20.22;27.46
45991;BME280;31721;41.740;-88.000;2023-06-10T03:49:40;98486.97;;;20.30;27.39
45991;BME280;31721;41.740;-88.000;2023-06-10T03:52:08;98488.02;;;20.15;27.36
45991;BME280;31721;41.740;-88.000;2023-06-10T03:54:36;98485.29;;;20.20;27.26
45991;BME280;31721;41.740;-88.000;2023-06-10T03:57:04;98486.20;;;20.11;27.43
45991;BME280;31721;41.740;-88.000;2023-06-10T03:59:32;98487.70;;;20.17;27.53
45991;BME280;31721;41.740;-88.000;2023-06-10T04:02:00;98486.08;;;20.07;27.28
45991;BME280;31721;41.740;-88.000;2023-06-10T04:04:28;98483.47;;;20.04;27.38
45991;BME280;31721;41.740;-88.000;2023-06-10T04:06:56;98481.79;;;20.09;27.24
45991;BME280;31721;41.740;-88.000;2023-06-10T04:09:23;98482.46;;;20.08;27.29
45991;BME280;31721;41.740;-88.000;2023-06-10T04:11:51;98484.87;;;20.03;27.32
45991;BME280;31721;41.740;-88.000;2023-06-10T04:14:19;98484.21;;;20.09;27.32
45991;BME280;31721;41.740;-88.000;2023-06-10T04:16:46;98482.44;;;20.04;27.35
45991;BME280;31721;41.740;-88.000;2023-06-10T04:19:15;98481.60;;;20.10;27.37
45991;BME280;31721;41.740;-88.000;2023-06-10T04:21:42;98478.31;;;20.10;27.21
45991;BME280;31721;41.740;-88.000;2023-06-10T04:24:11;98479.00;;;20.23;27.03
45991;BME280;31721;41.740;-88.000;2023-06-10T04:26:39;98476.65;;;20.15;26.96
45991;BME280;31721;41.740;-88.000;2023-06-10T04:29:06;98476.89;;;20.16;26.92
45991;BME280;31721;41.740;-88.000;2023-06-10T04:31:34;98478.87;;;20.20;26.97
45991;BME280;31721;41.740;-88.000;2023-06-10T04:34:03;98479.51;;;20.19;27.01
45991;BME280;31721;41.740;-88.000;2023-06-10T04:36:30;98479.22;;;20.31;26.79
45991;BME280;31721;41.740;-88.000;2023-06-10T04:38:58;98479.48;;;20.21;26.68
45991;BME280;31721;41.740;-88.000;2023-06-10T04:41:26;98477.87;;;20.21;26.66
45991;BME280;31721;41.740;-88.000;2023-06-10T04:43:54;98475.81;;;20.21;26.57
45991;BME280;31721;41.740;-88.000;2023-06-10T04:46:21;98472.46;;;20.25;26.59
45991;BME280;31721;41.740;-88.000;2023-06-10T04:48:49;98467.87;;;20.21;26.66
45991;BME280;31721;41.740;-88.000;2023-06-10T04:51:18;98463.49;;;20.29;26.64
45991;BME280;31721;41.740;-88.000;2023-06-10T04:53:46;98463.94;;;20.18;26.60
45991;BME280;31721;41.740;-88.000;2023-06-10T04:56:14;98463.69;;;20.28;26.52
45991;BME280;31721;41.740;-88.000;2023-06-10T04:58:43;98467.04;;;20.21;26.44
45991;BME280;31721;41.740;-88.000;2023-06-10T05:01:11;98463.84;;;20.36;26.37
45991;BME280;31721;41.740;-88.000;2023-06-10T05:03:39;98464.79;;;20.47;26.19
45991;BME280;31721;41.740;-88.000;2023-06-10T05:06:07;98468.78;;;20.30;26.26
45991;BME280;31721;41.740;-88.000;2023-06-10T05:08:36;98472.08;;;20.21;26.22
45991;BME280;31721;41.740;-88.000;2023-06-10T05:11:04;98474.20;;;20.37;26.18
45991;BME280;31721;41.740;-88.000;2023-06-10T05:13:32;98473.93;;;20.41;26.17
45991;BME280;31721;41.740;-88.000;2023-06-10T05:16:00;98474.26;;;20.36;25.98
45991;BME280;31721;41.740;-88.000;2023-06-10T05:18:28;98475.10;;;20.37;26.20
45991;BME280;31721;41.740;-88.000;2023-06-10T05:20:56;98475.93;;;20.35;26.09
45991;BME280;31721;41.740;-88.000;2023-06-10T05:23:24;98475.58;;;20.51;25.75
45991;BME280;31721;41.740;-88.000;2023-06-10T05:25:51;98477.52;;;20.57;25.81
45991;BME280;31721;41.740;-88.000;2023-06-10T05:28:19;98476.08;;;20.54;25.71
45991;BME280;31721;41.740;-88.000;2023-06-10T05:30:47;98472.82;;;20.65;25.50
45991;BME280;31721;41.740;-88.000;2023-06-10T05:33:15;98475.01;;;20.56;25.44
45991;BME280;31721;41.740;-88.000;2023-06-10T05:35:43;98469.88;;;20.50;25.43
45991;BME280;31721;41.740;-88.000;2023-06-10T05:38:11;98471.12;;;20.51;25.62
45991;BME280;31721;41.740;-88.000;2023-06-10T05:40:39;98467.22;;;20.41;25.68
45991;BME280;31721;41.740;-88.000;2023-06-10T05:43:06;98464.94;;;20.38;25.70
45991;BME280;31721;41.740;-88.000;2023-06-10T05:45:34;98462.85;;;20.56;25.44
45991;BME280;31721;41.740;-88.000;2023-06-10T05:48:02;98459.93;;;20.51;25.50
45991;BME280;31721;41.740;-88.000;2023-06-10T05:50:30;98458.15;;;20.42;25.67
45991;BME280;31721;41.740;-88.000;2023-06-10T05:52:58;98456.52;;;20.50;25.55
45991;BME280;31721;41.740;-88.000;2023-06-10T05:55:25;98464.31;;;20.49;25.53
45991;BME280;31721;41.740;-88.000;2023-06-10T05:57:59;98470.71;;;20.40;25.54
45991;BME280;31721;41.740;-88.000;2023-06-10T06:00:27;98471.58;;;20.46;25.41
45991;BME280;31721;41.740;-88.000;2023-06-10T06:02:55;98471.92;;;20.23;25.62
45991;BME280;31721;41.740;-88.000;2023-06-10T06:05:22;98467.76;;;20.23;25.78
45991;BME280;31721;41.740;-88.000;2023-06-10T06:07:50;98467.97;;;20.16;25.99
45991;BME280;31721;41.740;-88.000;2023-06-10T06:10:18;98467.61;;;20.12;26.12
45991;BME280;31721;41.740;-88.000;2023-06-10T06:12:46;98463.85;;;20.08;26.19
45991;BME280;31721;41.740;-88.000;2023-06-10T06:15:14;98460.16;;;19.94;26.46
45991;BME280;31721;41.740;-88.000;2023-06-10T06:17:42;98458.39;;;19.94;26.60
45991;BME280;31721;41.740;-88.000;2023-06-10T06:20:10;98458.18;;;19.82;26.63
45991;BME280;31721;41.740;-88.000;2023-06-10T06:22:38;98457.98;;;19.77;26.63
45991;BME280;31721;41.740;-88.000;2023-06-10T06:25:07;98457.52;;;19.74;26.78
45991;BME280;31721;41.740;-88.000;2023-06-10T06:27:34;98456.62;;;19.69;26.79
45991;BME280;31721;41.740;-88.000;2023-06-10T06:30:03;98452.44;;;19.75;26.67
45991;BME280;31721;41.740;-88.000;2023-06-10T06:32:31;98447.95;;;19.59;26.78
45991;BME280;31721;41.740;-88.000;2023-06-10T06:34:59;98447.70;;;19.56;27.00
45991;BME280;31721;41.740;-88.000;2023-06-10T06:37:26;98441.84;;;19.50;27.01
45991;BME280;31721;41.740;-88.000;2023-06-10T06:39:54;98441.70;;;19.46;27.30
45991;BME280;31721;41.740;-88.000;2023-06-10T06:42:22;98438.53;;;19.29;27.68
45991;BME280;31721;41.740;-88.000;2023-06-10T06:44:50;98434.05;;;19.30;27.83
45991;BME280;31721;41.740;-88.000;2023-06-10T06:47:17;98430.77;;;19.31;28.07
45991;BME280;31721;41.740;-88.000;2023-06-10T06:49:45;98428.09;;;19.12;28.32
45991;BME280;31721;41.740;-88.000;2023-06-10T06:52:13;98429.22;;;19.05;28.40
45991;BME280;31721;41.740;-88.000;2023-06-10T06:54:41;98427.87;;;19.14;28.34
45991;BME280;31721;41.740;-88.000;2023-06-10T06:57:08;98431.68;;;19.00;28.45
45991;BME280;31721;41.740;-88.000;2023-06-10T06:59:36;98435.30;;;18.92;28.66
45991;BME280;31721;41.740;-88.000;2023-06-10T07:02:03;98434.58;;;18.78;28.58
45991;BME280;31721;41.740;-88.000;2023-06-10T07:04:31;98433.10;;;18.85;28.67
45991;BME280;31721;41.740;-88.000;2023-06-10T07:06:59;98435.01;;;18.77;28.58
45991;BME280;31721;41.740;-88.000;2023-06-10T07:09:27;98433.50;;;18.63;28.38
45991;BME280;31721;41.740;-88.000;2023-06-10T07:11:55;98431.54;;;18.64;28.67
45991;BME280;31721;41.740;-88.000;2023-06-10T07:14:23;98430.56;;;18.57;28.66
45991;BME280;31721;41.740;-88.000;2023-06-10T07:16:51;98427.15;;;18.47;28.65
45991;BME280;31721;41.740;-88.000;2023-06-10T07:19:19;98433.32;;;18.45;28.80
45991;BME280;31721;41.740;-88.000;2023-06-10T07:21:47;98435.97;;;18.34;28.86
45991;BME280;31721;41.740;-88.000;2023-06-10T07:24:14;98432.27;;;18.34;28.98
45991;BME280;31721;41.740;-88.000;2023-06-10T07:26:42;98430.88;;;18.38;28.95
45991;BME280;31721;41.740;-88.000;2023-06-10T07:29:09;98426.70;;;18.41;28.82
45991;BME280;31721;41.740;-88.000;2023-06-10T07:31:36;98419.50;;;18.22;28.91
45991;BME280;31721;41.740;-88.000;2023-06-10T07:34:05;98415.76;;;18.29;28.92
45991;BME280;31721;41.740;-88.000;2023-06-10T07:36:32;98413.13;;;18.17;28.86
45991;BME280;31721;41.740;-88.000;2023-06-10T07:39:00;98411.14;;;18.12;28.95
45991;BME280;31721;41.740;-88.000;2023-06-10T07:41:28;98410.52;;;18.17;29.13
45991;BME280;31721;41.740;-88.000;2023-06-10T07:43:56;98405.93;;;18.13;29.29
45991;BME280;31721;41.740;-88.000;2023-06-10T07:46:24;98407.31;;;18.01;29.53
45991;BME280;31721;41.740;-88.000;2023-06-10T07:48:53;98406.07;;;17.99;29.72
45991;BME280;31721;41.740;-88.000;2023-06-10T07:51:21;98406.35;;;18.04;29.81
45991;BME280;31721;41.740;-88.000;2023-06-10T07:53:49;98406.19;;;17.91;29.73
45991;BME280;31721;41.740;-88.000;2023-06-10T07:56:16;98404.77;;;17.88;29.66
45991;BME280;31721;41.740;-88.000;2023-06-10T07:58:44;98407.50;;;17.84;29.55
45991;BME280;31721;41.740;-88.000;2023-06-10T08:01:12;98409.25;;;17.96;29.72
45991;BME280;31721;41.740;-88.000;2023-06-10T08:03:40;98407.00;;;17.86;29.86
45991;BME280;31721;41.740;-88.000;2023-06-10T08:06:07;98405.04;;;17.89;29.77
45991;BME280;31721;41.740;-88.000;2023-06-10T08:08:36;98402.67;;;17.79;29.81
45991;BME280;31721;41.740;-88.000;2023-06-10T08:11:05;98404.07;;;17.68;30.00
45991;BME280;31721;41.740;-88.000;2023-06-10T08:13:33;98403.30;;;17.73;29.90
45991;BME280;31721;41.740;-88.000;2023-06-10T08:16:00;98402.63;;;17.72;29.99
45991;BME280;31721;41.740;-88.000;2023-06-10T08:18:28;98403.40;;;17.69;30.11
45991;BME280;31721;41.740;-88.000;2023-06-10T08:20:55;98399.86;;;17.64;30.09
45991;BME280;31721;41.740;-88.000;2023-06-10T08:23:23;98397.36;;;17.55;30.12
45991;BME280;31721;41.740;-88.000;2023-06-10T08:25:50;98391.04;;;17.59;30.27
45991;BME280;31721;41.740;-88.000;2023-06-10T08:28:19;98387.30;;;17.42;30.26
45991;BME280;31721;41.740;-88.000;2023-06-10T08:30:47;98387.10;;;17.52;30.16
45991;BME280;31721;41.740;-88.000;2023-06-10T08:33:15;98386.81;;;17.35;30.48
45991;BME280;31721;41.740;-88.000;2023-06-10T08:35:43;98387.93;;;17.40;30.49
45991;BME280;31721;41.740;-88.000;2023-06-10T08:38:11;98385.79;;;17.44;30.50
45991;BME280;31721;41.740;-88.000;2023-06-10T08:40:39;98386.66;;;17.42;30.56
45991;BME280;31721;41.740;-88.000;2023-06-10T08:43:08;98388.79;;;17.40;30.55
45991;BME280;31721;41.740;-88.000;2023-06-10T08:45:38;98387.75;;;17.39;30.64
45991;BME280;31721;41.740;-88.000;2023-06-10T08:48:06;98387.23;;;17.37;30.68
45991;BME280;31721;41.740;-88.000;2023-06-10T08:50:35;98386.67;;;17.34;30.84
45991;BME280;31721;41.740;-88.000;2023-06-10T08:53:05;98385.22;;;17.22;30.95
45991;BME280;31721;41.740;-88.000;2023-06-10T08:55:35;98386.55;;;17.28;31.23
45991;BME280;31721;41.740;-88.000;2023-06-10T08:58:03;98389.74;;;17.23;31.31
45991;BME280;31721;41.740;-88.000;2023-06-10T09:00:32;98389.60;;;17.19;31.38
45991;BME280;31721;41.740;-88.000;2023-06-10T09:03:01;98390.78;;;17.15;31.77
45991;BME280;31721;41.740;-88.000;2023-06-10T09:05:30;98389.37;;;17.12;31.91
45991;BME280;31721;41.740;-88.000;2023-06-10T09:08:00;98389.97;;;17.07;32.30
45991;BME280;31721;41.740;-88.000;2023-06-10T09:10:29;98387.65;;;17.03;32.54
45991;BME280;31721;41.740;-88.000;2023-06-10T09:12:57;98388.68;;;17.00;32.86
45991;BME280;31721;41.740;-88.000;2023-06-10T09:15:24;98389.15;;;17.03;33.05
45991;BME280;31721;41.740;-88.000;2023-06-10T09:17:52;98394.08;;;17.01;33.54
45991;BME280;31721;41.740;-88.000;2023-06-10T09:20:20;98392.97;;;16.86;33.49
45991;BME280;31721;41.740;-88.000;2023-06-10T09:22:47;98392.95;;;16.82;33.66
45991;BME280;31721;41.740;-88.000;2023-06-10T09:25:15;98392.04;;;16.77;33.90
45991;BME280;31721;41.740;-88.000;2023-06-10T09:27:47;98396.86;;;16.72;34.15
45991;BME280;31721;41.740;-88.000;2023-06-10T09:30:24;98391.29;;;16.79;34.22
45991;BME280;31721;41.740;-88.000;2023-06-10T09:32:53;98394.35;;;16.69;34.17
45991;BME280;31721;41.740;-88.000;2023-06-10T09:35:21;98393.61;;;16.62;33.97
45991;BME280;31721;41.740;-88.000;2023-06-10T09:37:52;98390.00;;;16.58;34.03
45991;BME280;31721;41.740;-88.000;2023-06-10T09:40:20;98386.26;;;16.63;34.08
45991;BME280;31721;41.740;-88.000;2023-06-10T09:42:54;98383.99;;;16.68;34.36
45991;BME280;31721;41.740;-88.000;2023-06-10T09:45:22;98386.25;;;16.65;34.32
45991;BME280;31721;41.740;-88.000;2023-06-10T09:47:52;98391.48;;;16.63;34.45
45991;BME280;31721;41.740;-88.000;2023-06-10T09:50:20;98393.85;;;16.46;34.41
45991;BME280;31721;41.740;-88.000;2023-06-10T09:52:48;98393.14;;;16.56;34.50
45991;BME280;31721;41.740;-88.000;2023-06-10T09:55:16;98391.66;;;16.56;34.67
45991;BME280;31721;41.740;-88.000;2023-06-10T09:57:44;98387.33;;;16.46;34.67
45991;BME280;31721;41.740;-88.000;2023-06-10T10:00:13;98386.88;;;16.49;34.83
45991;BME280;31721;41.740;-88.000;2023-06-10T10:02:46;98383.32;;;16.44;34.86
45991;BME280;31721;41.740;-88.000;2023-06-10T10:05:15;98382.00;;;16.39;34.99
45991;BME280;31721;41.740;-88.000;2023-06-10T10:07:44;98380.95;;;16.35;34.99
45991;BME280;31721;41.740;-88.000;2023-06-10T10:10:15;98380.80;;;16.22;34.91
45991;BME280;31721;41.740;-88.000;2023-06-10T10:12:46;98380.10;;;16.26;34.86
45991;BME280;31721;41.740;-88.000;2023-06-10T10:15:17;98382.75;;;16.18;34.79
45991;BME280;31721;41.740;-88.000;2023-06-10T10:17:48;98384.22;;;16.20;34.65
45991;BME280;31721;41.740;-88.000;2023-06-10T10:20:20;98384.80;;;16.09;34.65
45991;BME280;31721;41.740;-88.000;2023-06-10T10:22:50;98385.90;;;16.22;34.80
45991;BME280;31721;41.740;-88.000;2023-06-10T10:25:24;98388.80;;;16.13;34.65
45991;BME280;31721;41.740;-88.000;2023-06-10T10:27:58;98388.69;;;16.12;34.77
45991;BME280;31721;41.740;-88.000;2023-06-10T10:30:28;98388.43;;;16.12;34.82
45991;BME280;31721;41.740;-88.000;2023-06-10T10:32:58;98389.46;;;16.04;34.83
45991;BME280;31721;41.740;-88.000;2023-06-10T10:35:27;98392.00;;;16.11;35.03
45991;BME280;31721;41.740;-88.000;2023-06-10T10:37:55;98394.18;;;16.09;35.07
45991;BME280;31721;41.740;-88.000;2023-06-10T10:40:24;98393.90;;;16.06;35.19
45991;BME280;31721;41.740;-88.000;2023-06-10T10:42:53;98390.76;;;16.06;35.38
45991;BME280;31721;41.740;-88.000;2023-06-10T10:45:22;98387.31;;;15.98;35.43
45991;BME280;31721;41.740;-88.000;2023-06-10T10:47:53;98384.28;;;16.02;35.67
45991;BME280;31721;41.740;-88.000;2023-06-10T10:50:23;98382.59;;;16.03;35.85
45991;BME280;31721;41.740;-88.000;2023-06-10T10:52:55;98380.51;;;16.02;35.90
45991;BME280;31721;41.740;-88.000;2023-06-10T10:55:24;98382.20;;;16.03;36.08
45991;BME280;31721;41.740;-88.000;2023-06-10T10:57:57;98386.78;;;16.02;36.38
45991;BME280;31721;41.740;-88.000;2023-06-10T11:00:28;98385.59;;;16.04;36.46
45991;BME280;31721;41.740;-88.000;2023-06-10T11:02:59;98384.84;;;16.04;36.63
45991;BME280;31721;41.740;-88.000;2023-06-10T11:05:44;98384.67;;;15.98;36.68
45991;BME280;31721;41.740;-88.000;2023-06-10T11:08:12;98384.00;;;16.05;36.96
45991;BME280;31721;41.740;-88.000;2023-06-10T11:10:41;98383.96;;;16.00;36.68
45991;BME280;31721;41.740;-88.000;2023-06-10T11:13:20;98386.90;;;16.09;37.09
45991;BME280;31721;41.740;-88.000;2023-06-10T11:15:49;98389.76;;;16.12;37.26
45991;BME280;31721;41.740;-88.000;2023-06-10T11:18:23;98391.84;;;16.08;37.10
45991;BME280;31721;41.740;-88.000;2023-06-10T11:20:55;98394.15;;;16.18;37.14
45991;BME280;31721;41.740;-88.000;2023-06-10T11:23:35;98400.50;;;16.20;37.41
45991;BME280;31721;41.740;-88.000;2023-06-10T11:26:30;98403.05;;;16.24;37.51
45991;BME280;31721;41.740;-88.000;2023-06-10T11:29:07;98403.24;;;16.22;37.75
45991;BME280;31721;41.740;-88.000;2023-06-10T11:31:40;98402.18;;;16.38;38.05
45991;BME280;31721;41.740;-88.000;2023-06-10T11:34:08;98401.46;;;16.34;38.01
45991;BME280;31721;41.740;-88.000;2023-06-10T11:36:38;98401.62;;;16.40;38.17
45991;BME280;31721;41.740;-88.000;2023-06-10T11:39:06;98400.91;;;16.45;38.22
45991;BME280;31721;41.740;-88.000;2023-06-10T11:41:35;98401.45;;;16.42;38.20
45991;BME280;31721;41.740;-88.000;2023-06-10T11:44:06;98400.32;;;16.50;38.40
45991;BME280;31721;41.740;-88.000;2023-06-10T11:46:35;98401.32;;;16.65;38.44
45991;BME280;31721;41.740;-88.000;2023-06-10T11:49:04;98404.13;;;16.70;38.73
45991;BME280;31721;41.740;-88.000;2023-06-10T11:51:34;98408.83;;;16.71;38.89
45991;BME280;31721;41.740;-88.000;2023-06-10T11:54:03;98407.45;;;16.80;38.68
45991;BME280;31721;41.740;-88.000;2023-06-10T11:56:32;98409.07;;;16.90;38.52
45991;BME280;31721;41.740;-88.000;2023-06-10T11:59:01;98410.64;;;16.98;38.96
45991;BME280;31721;41.740;-88.000;2023-06-10T12:01:29;98410.97;;;17.07;38.78
45991;BME280;31721;41.740;-88.000;2023-06-10T12:03:58;98411.81;;;17.20;38.97
45991;BME280;31721;41.740;-88.000;2023-06-10T12:06:26;98413.96;;;17.28;38.71
45991;BME280;31721;41.740;-88.000;2023-06-10T12:08:55;98411.10;;;17.44;38.61
45991;BME280;31721;41.740;-88.000;2023-06-10T12:11:25;98410.91;;;17.49;38.85
45991;BME280;31721;41.740;-88.000;2023-06-10T12:13:52;98412.22;;;17.76;38.49
45991;BME280;31721;41.740;-88.000;2023-06-10T12:16:20;98412.28;;;17.69;38.55
45991;BME280;31721;41.740;-88.000;2023-06-10T12:18:48;98412.43;;;18.01;38.29
45991;BME280;31721;41.740;-88.000;2023-06-10T12:21:17;98410.94;;;18.19;38.15
45991;BME280;31721;41.740;-88.000;2023-06-10T12:24:18;98415.37;;;18.20;38.11
45991;BME280;31721;41.740;-88.000;2023-06-10T12:26:46;98420.48;;;18.46;37.93
45991;BME280;31721;41.740;-88.000;2023-06-10T12:29:18;98419.41;;;18.69;37.35
45991;BME280;31721;41.740;-88.000;2023-06-10T12:31:55;98418.63;;;18.87;37.46
45991;BME280;31721;41.740;-88.000;2023-06-10T12:34:32;98412.56;;;18.93;37.14
45991;BME280;31721;41.740;-88.000;2023-06-10T12:37:01;98412.52;;;19.15;36.88
45991;BME280;31721;41.740;-88.000;2023-06-10T12:39:29;98411.64;;;19.27;36.80
45991;BME280;31721;41.740;-88.000;2023-06-10T12:41:58;98413.05;;;19.47;36.61
45991;BME280;31721;41.740;-88.000;2023-06-10T12:44:32;98409.42;;;19.65;36.30
45991;BME280;31721;41.740;-88.000;2023-06-10T12:47:01;98408.43;;;19.86;35.69
45991;BME280;31721;41.740;-88.000;2023-06-10T12:49:34;98407.09;;;20.07;35.33